Terminal Aerodrome Forecast
Issued by NWS North Platte, NE

Home | Current Version | Previous Version | Graphics & Text | Print | Product List | Glossary On
Versions: 1 2 3 4 5 6 7 8 9 10 11 12 13 14
385
FTUS43 KLBF 062328
TAFVTN
TAF
KVTN 062328Z 0700/0724 31010KT P6SM SCT200
     FM070300 31010KT P6SM BKN150
     FM071500 31015G25KT P6SM BKN100
     FM072300 31016G26KT P6SM SCT090=

USA.gov is the U.S. government's official web portal to all federal, state and local government web resources and services.